sensor_id;sensor_type;location;lat;lon;timestamp;P1;durP1;ratioP1;P2;durP2;ratioP2
49514;SDS011;35415;47.870;16.058;2024-01-15T00:01:14;8.45;;;3.90;;
49514;SDS011;35415;47.870;16.058;2024-01-15T00:03:42;3.17;;;2.22;;
49514;SDS011;35415;47.870;16.058;2024-01-15T00:06:09;7.95;;;3.40;;
49514;SDS011;35415;47.870;16.058;2024-01-15T00:08:38;7.15;;;3.42;;
49514;SDS011;35415;47.870;16.058;2024-01-15T00:11:06;7.63;;;3.38;;
49514;SDS011;35415;47.870;16.058;2024-01-15T00:13:33;6.28;;;2.97;;
49514;SDS011;35415;47.870;16.058;2024-01-15T00:16:01;5.72;;;2.55;;
49514;SDS011;35415;47.870;16.058;2024-01-15T00:18:28;4.47;;;2.50;;
49514;SDS011;35415;47.870;16.058;2024-01-15T00:20:56;7.85;;;3.95;;
49514;SDS011;35415;47.870;16.058;2024-01-15T00:23:23;6.50;;;3.25;;
49514;SDS011;35415;47.870;16.058;2024-01-15T00:25:52;7.03;;;2.60;;
49514;SDS011;35415;47.870;16.058;2024-01-15T00:28:19;4.85;;;2.35;;
49514;SDS011;35415;47.870;16.058;2024-01-15T00:30:47;7.10;;;3.05;;
49514;SDS011;35415;47.870;16.058;2024-01-15T00:33:14;4.47;;;2.45;;
49514;SDS011;35415;47.870;16.058;2024-01-15T00:35:42;5.88;;;2.70;;
49514;SDS011;35415;47.870;16.058;2024-01-15T00:38:09;7.63;;;2.03;;
49514;SDS011;35415;47.870;16.058;2024-01-15T00:40:37;7.00;;;3.22;;
49514;SDS011;35415;47.870;16.058;2024-01-15T00:43:06;5.38;;;2.75;;
49514;SDS011;35415;47.870;16.058;2024-01-15T00:45:33;5.22;;;2.38;;
49514;SDS011;35415;47.870;16.058;2024-01-15T00:48:00;6.30;;;3.22;;
49514;SDS011;35415;47.870;16.058;2024-01-15T00:50:28;7.68;;;3.03;;
49514;SDS011;35415;47.870;16.058;2024-01-15T00:52:56;6.63;;;2.67;;
49514;SDS011;35415;47.870;16.058;2024-01-15T00:55:23;5.07;;;2.25;;
49514;SDS011;35415;47.870;16.058;2024-01-15T00:57:50;5.50;;;2.60;;
49514;SDS011;35415;47.870;16.058;2024-01-15T01:00:19;6.25;;;2.53;;
49514;SDS011;35415;47.870;16.058;2024-01-15T01:02:47;5.82;;;2.88;;
49514;SDS011;35415;47.870;16.058;2024-01-15T01:05:15;4.20;;;2.45;;
49514;SDS011;35415;47.870;16.058;2024-01-15T01:07:42;5.13;;;2.58;;
49514;SDS011;35415;47.870;16.058;2024-01-15T01:10:09;6.45;;;2.70;;
49514;SDS011;35415;47.870;16.058;2024-01-15T01:12:37;5.70;;;2.80;;
49514;SDS011;35415;47.870;16.058;2024-01-15T01:15:05;6.35;;;2.60;;
49514;SDS011;35415;47.870;16.058;2024-01-15T01:17:34;4.43;;;2.55;;
49514;SDS011;35415;47.870;16.058;2024-01-15T01:20:02;3.70;;;2.60;;
49514;SDS011;35415;47.870;16.058;2024-01-15T01:22:31;6.30;;;2.90;;
49514;SDS011;35415;47.870;16.058;2024-01-15T01:24:59;4.75;;;2.13;;
49514;SDS011;35415;47.870;16.058;2024-01-15T01:27:26;6.63;;;2.70;;
49514;SDS011;35415;47.870;16.058;2024-01-15T01:29:54;6.25;;;2.60;;
49514;SDS011;35415;47.870;16.058;2024-01-15T01:32:22;3.60;;;2.67;;
49514;SDS011;35415;47.870;16.058;2024-01-15T01:34:51;5.00;;;2.50;;
49514;SDS011;35415;47.870;16.058;2024-01-15T01:37:18;3.53;;;2.30;;
49514;SDS011;35415;47.870;16.058;2024-01-15T01:39:46;6.10;;;2.38;;
49514;SDS011;35415;47.870;16.058;2024-01-15T01:42:13;4.15;;;2.35;;
49514;SDS011;35415;47.870;16.058;2024-01-15T01:44:41;5.15;;;2.67;;
49514;SDS011;35415;47.870;16.058;2024-01-15T01:47:09;5.13;;;2.58;;
49514;SDS011;35415;47.870;16.058;2024-01-15T01:49:36;4.95;;;2.35;;
49514;SDS011;35415;47.870;16.058;2024-01-15T01:52:06;4.68;;;2.22;;
49514;SDS011;35415;47.870;16.058;2024-01-15T01:54:35;8.77;;;2.63;;
49514;SDS011;35415;47.870;16.058;2024-01-15T01:57:05;5.00;;;2.60;;
49514;SDS011;35415;47.870;16.058;2024-01-15T01:59:34;5.03;;;2.22;;
49514;SDS011;35415;47.870;16.058;2024-01-15T02:02:02;5.20;;;2.78;;
49514;SDS011;35415;47.870;16.058;2024-01-15T02:04:31;5.13;;;2.58;;
49514;SDS011;35415;47.870;16.058;2024-01-15T02:06:59;6.55;;;2.75;;
49514;SDS011;35415;47.870;16.058;2024-01-15T02:09:27;3.47;;;1.83;;
49514;SDS011;35415;47.870;16.058;2024-01-15T02:11:55;3.83;;;1.73;;
49514;SDS011;35415;47.870;16.058;2024-01-15T02:14:22;4.38;;;2.72;;
49514;SDS011;35415;47.870;16.058;2024-01-15T02:16:50;3.95;;;1.35;;
49514;SDS011;35415;47.870;16.058;2024-01-15T02:19:17;5.05;;;2.25;;
49514;SDS011;35415;47.870;16.058;2024-01-15T02:21:45;3.63;;;2.15;;
49514;SDS011;35415;47.870;16.058;2024-01-15T02:24:14;2.53;;;1.58;;
49514;SDS011;35415;47.870;16.058;2024-01-15T02:26:41;3.25;;;1.73;;
49514;SDS011;35415;47.870;16.058;2024-01-15T02:29:09;5.10;;;2.03;;
49514;SDS011;35415;47.870;16.058;2024-01-15T02:31:38;4.03;;;2.10;;
49514;SDS011;35415;47.870;16.058;2024-01-15T02:34:06;3.47;;;2.05;;
49514;SDS011;35415;47.870;16.058;2024-01-15T02:36:33;4.43;;;2.15;;
49514;SDS011;35415;47.870;16.058;2024-01-15T02:39:00;4.40;;;2.38;;
49514;SDS011;35415;47.870;16.058;2024-01-15T02:41:30;5.35;;;1.92;;
49514;SDS011;35415;47.870;16.058;2024-01-15T02:43:57;4.50;;;1.92;;
49514;SDS011;35415;47.870;16.058;2024-01-15T02:46:25;4.55;;;2.35;;
49514;SDS011;35415;47.870;16.058;2024-01-15T02:48:52;3.55;;;1.83;;
49514;SDS011;35415;47.870;16.058;2024-01-15T02:51:20;4.38;;;1.95;;
49514;SDS011;35415;47.870;16.058;2024-01-15T02:53:48;5.75;;;2.20;;
49514;SDS011;35415;47.870;16.058;2024-01-15T02:56:17;4.43;;;2.13;;
49514;SDS011;35415;47.870;16.058;2024-01-15T02:58:46;6.43;;;2.60;;
49514;SDS011;35415;47.870;16.058;2024-01-15T03:01:13;6.20;;;2.17;;
49514;SDS011;35415;47.870;16.058;2024-01-15T03:03:41;3.88;;;2.10;;
49514;SDS011;35415;47.870;16.058;2024-01-15T03:06:10;4.07;;;1.92;;
49514;SDS011;35415;47.870;16.058;2024-01-15T03:08:37;4.38;;;2.22;;
49514;SDS011;35415;47.870;16.058;2024-01-15T03:11:05;3.33;;;1.95;;
49514;SDS011;35415;47.870;16.058;2024-01-15T03:13:35;4.68;;;2.20;;
49514;SDS011;35415;47.870;16.058;2024-01-15T03:16:04;2.53;;;1.63;;
49514;SDS011;35415;47.870;16.058;2024-01-15T03:18:32;4.55;;;2.50;;
49514;SDS011;35415;47.870;16.058;2024-01-15T03:21:00;4.38;;;1.98;;
49514;SDS011;35415;47.870;16.058;2024-01-15T03:23:27;4.28;;;2.08;;
49514;SDS011;35415;47.870;16.058;2024-01-15T03:25:55;4.45;;;2.05;;
49514;SDS011;35415;47.870;16.058;2024-01-15T03:28:23;4.78;;;2.17;;
49514;SDS011;35415;47.870;16.058;2024-01-15T03:30:50;3.30;;;2.10;;
49514;SDS011;35415;47.870;16.058;2024-01-15T03:33:19;2.85;;;2.00;;
49514;SDS011;35415;47.870;16.058;2024-01-15T03:35:47;3.33;;;1.98;;
49514;SDS011;35415;47.870;16.058;2024-01-15T03:38:14;4.60;;;2.13;;
49514;SDS011;35415;47.870;16.058;2024-01-15T03:40:41;4.00;;;2.03;;
49514;SDS011;35415;47.870;16.058;2024-01-15T03:43:09;4.63;;;2.47;;
49514;SDS011;35415;47.870;16.058;2024-01-15T03:45:36;3.85;;;2.20;;
49514;SDS011;35415;47.870;16.058;2024-01-15T03:48:04;4.03;;;2.08;;
49514;SDS011;35415;47.870;16.058;2024-01-15T03:50:33;5.15;;;1.80;;
49514;SDS011;35415;47.870;16.058;2024-01-15T03:53:01;5.40;;;2.47;;
49514;SDS011;35415;47.870;16.058;2024-01-15T03:55:29;4.25;;;2.25;;
49514;SDS011;35415;47.870;16.058;2024-01-15T03:57:57;5.35;;;2.10;;
49514;SDS011;35415;47.870;16.058;2024-01-15T04:00:24;7.30;;;3.08;;
49514;SDS011;35415;47.870;16.058;2024-01-15T04:02:52;9.00;;;3.15;;
49514;SDS011;35415;47.870;16.058;2024-01-15T04:05:19;7.50;;;2.63;;
49514;SDS011;35415;47.870;16.058;2024-01-15T04:07:48;3.78;;;1.67;;
49514;SDS011;35415;47.870;16.058;2024-01-15T04:10:16;5.63;;;2.22;;
49514;SDS011;35415;47.870;16.058;2024-01-15T04:12:44;3.85;;;2.03;;
49514;SDS011;35415;47.870;16.058;2024-01-15T04:15:12;4.88;;;2.30;;
49514;SDS011;35415;47.870;16.058;2024-01-15T04:17:39;3.35;;;1.60;;
49514;SDS011;35415;47.870;16.058;2024-01-15T04:20:07;3.83;;;1.60;;
49514;SDS011;35415;47.870;16.058;2024-01-15T04:22:35;4.10;;;2.03;;
49514;SDS011;35415;47.870;16.058;2024-01-15T04:25:05;5.78;;;2.20;;
49514;SDS011;35415;47.870;16.058;2024-01-15T04:27:33;3.78;;;2.45;;
49514;SDS011;35415;47.870;16.058;2024-01-15T04:30:01;5.68;;;2.22;;
49514;SDS011;35415;47.870;16.058;2024-01-15T04:32:28;3.47;;;2.00;;
49514;SDS011;35415;47.870;16.058;2024-01-15T04:34:56;2.58;;;1.40;;
49514;SDS011;35415;47.870;16.058;2024-01-15T04:37:23;3.88;;;1.60;;
49514;SDS011;35415;47.870;16.058;2024-01-15T04:39:50;2.33;;;1.40;;
49514;SDS011;35415;47.870;16.058;2024-01-15T04:42:21;3.40;;;1.42;;
49514;SDS011;35415;47.870;16.058;2024-01-15T04:44:50;2.25;;;1.67;;
49514;SDS011;35415;47.870;16.058;2024-01-15T04:47:17;3.25;;;1.70;;
49514;SDS011;35415;47.870;16.058;2024-01-15T04:49:45;4.43;;;1.95;;
49514;SDS011;35415;47.870;16.058;2024-01-15T04:52:14;4.45;;;2.00;;
49514;SDS011;35415;47.870;16.058;2024-01-15T04:54:42;3.60;;;1.85;;
49514;SDS011;35415;47.870;16.058;2024-01-15T04:57:10;2.95;;;1.70;;
49514;SDS011;35415;47.870;16.058;2024-01-15T04:59:39;3.70;;;1.77;;
49514;SDS011;35415;47.870;16.058;2024-01-15T05:02:06;2.05;;;1.58;;
49514;SDS011;35415;47.870;16.058;2024-01-15T05:04:34;1.92;;;1.38;;
49514;SDS011;35415;47.870;16.058;2024-01-15T05:07:01;3.15;;;2.00;;
49514;SDS011;35415;47.870;16.058;2024-01-15T05:09:28;1.23;;;1.05;;
49514;SDS011;35415;47.870;16.058;2024-01-15T05:11:56;3.80;;;1.83;;
49514;SDS011;35415;47.870;16.058;2024-01-15T05:14:24;2.55;;;1.85;;
49514;SDS011;35415;47.870;16.058;2024-01-15T05:16:52;2.60;;;1.23;;
49514;SDS011;35415;47.870;16.058;2024-01-15T05:19:20;2.88;;;1.70;;
49514;SDS011;35415;47.870;16.058;2024-01-15T05:21:47;2.15;;;1.42;;
49514;SDS011;35415;47.870;16.058;2024-01-15T05:24:15;2.33;;;1.17;;
49514;SDS011;35415;47.870;16.058;2024-01-15T05:26:42;2.75;;;1.60;;
49514;SDS011;35415;47.870;16.058;2024-01-15T05:29:10;4.55;;;1.02;;
49514;SDS011;35415;47.870;16.058;2024-01-15T05:31:37;1.60;;;1.10;;
49514;SDS011;35415;47.870;16.058;2024-01-15T05:34:06;2.85;;;1.20;;
49514;SDS011;35415;47.870;16.058;2024-01-15T05:36:34;1.35;;;0.85;;
49514;SDS011;35415;47.870;16.058;2024-01-15T05:39:01;4.53;;;1.48;;
49514;SDS011;35415;47.870;16.058;2024-01-15T05:41:29;3.25;;;1.45;;
49514;SDS011;35415;47.870;16.058;2024-01-15T05:43:56;1.80;;;1.40;;
49514;SDS011;35415;47.870;16.058;2024-01-15T05:46:24;2.20;;;1.42;;
49514;SDS011;35415;47.870;16.058;2024-01-15T05:48:51;1.17;;;1.08;;
49514;SDS011;35415;47.870;16.058;2024-01-15T05:51:20;1.85;;;1.10;;
49514;SDS011;35415;47.870;16.058;2024-01-15T05:53:48;2.50;;;1.30;;
49514;SDS011;35415;47.870;16.058;2024-01-15T05:56:15;1.45;;;1.08;;
49514;SDS011;35415;47.870;16.058;2024-01-15T05:58:43;7.55;;;1.40;;
49514;SDS011;35415;47.870;16.058;2024-01-15T06:01:10;1.80;;;0.93;;
49514;SDS011;35415;47.870;16.058;2024-01-15T06:03:37;1.38;;;1.00;;
49514;SDS011;35415;47.870;16.058;2024-01-15T06:06:05;1.48;;;1.13;;
49514;SDS011;35415;47.870;16.058;2024-01-15T06:08:34;1.58;;;1.05;;
49514;SDS011;35415;47.870;16.058;2024-01-15T06:11:01;2.15;;;1.08;;
49514;SDS011;35415;47.870;16.058;2024-01-15T06:13:29;2.40;;;1.35;;
49514;SDS011;35415;47.870;16.058;2024-01-15T06:15:56;1.75;;;0.90;;
49514;SDS011;35415;47.870;16.058;2024-01-15T06:18:24;1.98;;;1.23;;
49514;SDS011;35415;47.870;16.058;2024-01-15T06:20:51;3.35;;;2.03;;
49514;SDS011;35415;47.870;16.058;2024-01-15T06:23:18;2.58;;;1.30;;
49514;SDS011;35415;47.870;16.058;2024-01-15T06:25:47;2.85;;;1.63;;
49514;SDS011;35415;47.870;16.058;2024-01-15T06:28:15;2.35;;;1.25;;
49514;SDS011;35415;47.870;16.058;2024-01-15T06:30:42;1.85;;;0.95;;
49514;SDS011;35415;47.870;16.058;2024-01-15T06:33:09;1.92;;;1.10;;
49514;SDS011;35415;47.870;16.058;2024-01-15T06:35:37;1.73;;;1.30;;
49514;SDS011;35415;47.870;16.058;2024-01-15T06:38:04;9.80;;;5.10;;
49514;SDS011;35415;47.870;16.058;2024-01-15T06:40:32;3.60;;;1.73;;
49514;SDS011;35415;47.870;16.058;2024-01-15T06:43:01;1.52;;;1.00;;
49514;SDS011;35415;47.870;16.058;2024-01-15T06:45:29;1.75;;;1.27;;
49514;SDS011;35415;47.870;16.058;2024-01-15T06:47:57;2.28;;;1.60;;
49514;SDS011;35415;47.870;16.058;2024-01-15T06:50:24;4.28;;;3.05;;
49514;SDS011;35415;47.870;16.058;2024-01-15T06:52:52;4.57;;;1.48;;
49514;SDS011;35415;47.870;16.058;2024-01-15T06:55:19;17.75;;;11.05;;
49514;SDS011;35415;47.870;16.058;2024-01-15T06:57:47;4.95;;;3.13;;
49514;SDS011;35415;47.870;16.058;2024-01-15T07:00:17;4.65;;;2.03;;
49514;SDS011;35415;47.870;16.058;2024-01-15T07:02:45;2.10;;;1.10;;
49514;SDS011;35415;47.870;16.058;2024-01-15T07:05:13;2.83;;;1.13;;
49514;SDS011;35415;47.870;16.058;2024-01-15T07:07:41;5.30;;;1.17;;
49514;SDS011;35415;47.870;16.058;2024-01-15T07:10:08;1.70;;;1.15;;
49514;SDS011;35415;47.870;16.058;2024-01-15T07:12:36;3.70;;;1.20;;
49514;SDS011;35415;47.870;16.058;2024-01-15T07:15:04;1.80;;;1.30;;
49514;SDS011;35415;47.870;16.058;2024-01-15T07:17:34;1.40;;;0.63;;
49514;SDS011;35415;47.870;16.058;2024-01-15T07:20:05;1.73;;;0.98;;
49514;SDS011;35415;47.870;16.058;2024-01-15T07:22:35;1.55;;;1.10;;
49514;SDS011;35415;47.870;16.058;2024-01-15T07:25:03;3.55;;;2.78;;
49514;SDS011;35415;47.870;16.058;2024-01-15T07:27:32;9.70;;;5.28;;
49514;SDS011;35415;47.870;16.058;2024-01-15T07:29:59;4.05;;;2.10;;
49514;SDS011;35415;47.870;16.058;2024-01-15T07:32:29;3.75;;;2.45;;
49514;SDS011;35415;47.870;16.058;2024-01-15T07:34:58;2.00;;;1.25;;
49514;SDS011;35415;47.870;16.058;2024-01-15T07:37:26;3.33;;;2.10;;
49514;SDS011;35415;47.870;16.058;2024-01-15T07:39:53;4.30;;;1.65;;
49514;SDS011;35415;47.870;16.058;2024-01-15T07:42:21;5.28;;;2.75;;
49514;SDS011;35415;47.870;16.058;2024-01-15T07:44:49;3.88;;;2.17;;
49514;SDS011;35415;47.870;16.058;2024-01-15T07:47:17;6.75;;;4.22;;
49514;SDS011;35415;47.870;16.058;2024-01-15T07:49:44;4.72;;;1.55;;
49514;SDS011;35415;47.870;16.058;2024-01-15T07:52:13;2.55;;;2.03;;
49514;SDS011;35415;47.870;16.058;2024-01-15T07:54:41;2.67;;;1.00;;
49514;SDS011;35415;47.870;16.058;2024-01-15T07:57:08;4.05;;;2.65;;
49514;SDS011;35415;47.870;16.058;2024-01-15T07:59:35;6.32;;;2.40;;
49514;SDS011;35415;47.870;16.058;2024-01-15T08:02:03;9.55;;;4.43;;
49514;SDS011;35415;47.870;16.058;2024-01-15T08:04:30;10.65;;;5.55;;
49514;SDS011;35415;47.870;16.058;2024-01-15T08:06:58;2.35;;;1.40;;
49514;SDS011;35415;47.870;16.058;2024-01-15T08:09:26;4.38;;;2.10;;
49514;SDS011;35415;47.870;16.058;2024-01-15T08:11:55;1.85;;;1.02;;
49514;SDS011;35415;47.870;16.058;2024-01-15T08:14:22;1.98;;;1.10;;
49514;SDS011;35415;47.870;16.058;2024-01-15T08:16:50;2.20;;;1.55;;
49514;SDS011;35415;47.870;16.058;2024-01-15T08:19:17;7.40;;;3.83;;
49514;SDS011;35415;47.870;16.058;2024-01-15T08:21:45;4.95;;;1.55;;
49514;SDS011;35415;47.870;16.058;2024-01-15T08:24:12;1.88;;;1.20;;
49514;SDS011;35415;47.870;16.058;2024-01-15T08:26:41;3.45;;;1.75;;
49514;SDS011;35415;47.870;16.058;2024-01-15T08:29:09;3.05;;;1.50;;
49514;SDS011;35415;47.870;16.058;2024-01-15T08:31:36;1.17;;;0.90;;
49514;SDS011;35415;47.870;16.058;2024-01-15T08:34:04;3.35;;;1.85;;
49514;SDS011;35415;47.870;16.058;2024-01-15T08:36:31;2.17;;;1.42;;
49514;SDS011;35415;47.870;16.058;2024-01-15T08:39:00;2.78;;;1.80;;
49514;SDS011;35415;47.870;16.058;2024-01-15T08:41:30;2.63;;;1.60;;
49514;SDS011;35415;47.870;16.058;2024-01-15T08:43:59;6.13;;;1.95;;
49514;SDS011;35415;47.870;16.058;2024-01-15T08:46:28;2.65;;;1.00;;
49514;SDS011;35415;47.870;16.058;2024-01-15T08:48:55;1.92;;;1.38;;
49514;SDS011;35415;47.870;16.058;2024-01-15T08:51:23;3.25;;;2.00;;
49514;SDS011;35415;47.870;16.058;2024-01-15T08:53:50;2.13;;;1.20;;
49514;SDS011;35415;47.870;16.058;2024-01-15T08:56:18;3.63;;;1.20;;
49514;SDS011;35415;47.870;16.058;2024-01-15T08:58:45;4.57;;;1.17;;
49514;SDS011;35415;47.870;16.058;2024-01-15T09:01:14;1.55;;;1.00;;
49514;SDS011;35415;47.870;16.058;2024-01-15T09:03:42;1.52;;;0.98;;
49514;SDS011;35415;47.870;16.058;2024-01-15T09:06:10;3.38;;;1.10;;
49514;SDS011;35415;47.870;16.058;2024-01-15T09:08:37;1.15;;;0.70;;
49514;SDS011;35415;47.870;16.058;2024-01-15T09:11:04;1.00;;;0.70;;
49514;SDS011;35415;47.870;16.058;2024-01-15T09:13:32;2.15;;;1.10;;
49514;SDS011;35415;47.870;16.058;2024-01-15T09:16:00;1.35;;;1.00;;
49514;SDS011;35415;47.870;16.058;2024-01-15T09:18:29;4.20;;;1.10;;
49514;SDS011;35415;47.870;16.058;2024-01-15T09:20:57;2.22;;;1.13;;
49514;SDS011;35415;47.870;16.058;2024-01-15T09:23:25;1.95;;;1.08;;
49514;SDS011;35415;47.870;16.058;2024-01-15T09:25:52;3.55;;;1.27;;
49514;SDS011;35415;47.870;16.058;2024-01-15T09:28:20;2.30;;;1.00;;
49514;SDS011;35415;47.870;16.058;2024-01-15T09:30:48;1.27;;;0.90;;
49514;SDS011;35415;47.870;16.058;2024-01-15T09:33:16;1.15;;;0.90;;
49514;SDS011;35415;47.870;16.058;2024-01-15T09:35:45;1.20;;;0.85;;
49514;SDS011;35415;47.870;16.058;2024-01-15T09:38:12;1.48;;;1.05;;
49514;SDS011;35415;47.870;16.058;2024-01-15T09:40:39;4.40;;;1.35;;
49514;SDS011;35415;47.870;16.058;2024-01-15T09:43:10;1.77;;;1.00;;
49514;SDS011;35415;47.870;16.058;2024-01-15T09:45:39;1.70;;;0.90;;
49514;SDS011;35415;47.870;16.058;2024-01-15T09:48:07;1.58;;;0.85;;
49514;SDS011;35415;47.870;16.058;2024-01-15T09:50:35;1.23;;;0.70;;
49514;SDS011;35415;47.870;16.058;2024-01-15T09:53:04;1.38;;;0.88;;
49514;SDS011;35415;47.870;16.058;2024-01-15T09:55:32;2.75;;;1.13;;
49514;SDS011;35415;47.870;16.058;2024-01-15T09:58:00;3.63;;;0.90;;
49514;SDS011;35415;47.870;16.058;2024-01-15T10:00:28;2.60;;;1.20;;
49514;SDS011;35415;47.870;16.058;2024-01-15T10:02:56;2.35;;;0.90;;
49514;SDS011;35415;47.870;16.058;2024-01-15T10:05:25;1.30;;;0.70;;
49514;SDS011;35415;47.870;16.058;2024-01-15T10:07:53;2.63;;;1.10;;
49514;SDS011;35415;47.870;16.058;2024-01-15T10:10:24;0.85;;;0.73;;
49514;SDS011;35415;47.870;16.058;2024-01-15T10:12:52;1.80;;;1.25;;
49514;SDS011;35415;47.870;16.058;2024-01-15T10:15:22;1.40;;;0.90;;
49514;SDS011;35415;47.870;16.058;2024-01-15T10:17:51;2.05;;;1.00;;
49514;SDS011;35415;47.870;16.058;2024-01-15T10:20:19;2.92;;;0.90;;
49514;SDS011;35415;47.870;16.058;2024-01-15T10:22:49;1.40;;;0.90;;
49514;SDS011;35415;47.870;16.058;2024-01-15T10:25:17;1.63;;;0.80;;
49514;SDS011;35415;47.870;16.058;2024-01-15T10:28:00;6.97;;;1.15;;
49514;SDS011;35415;47.870;16.058;2024-01-15T10:30:28;2.83;;;1.70;;
49514;SDS011;35415;47.870;16.058;2024-01-15T10:32:59;1.75;;;1.02;;
49514;SDS011;35415;47.870;16.058;2024-01-15T10:35:29;3.28;;;0.70;;
49514;SDS011;35415;47.870;16.058;2024-01-15T10:37:57;3.03;;;0.90;;
49514;SDS011;35415;47.870;16.058;2024-01-15T10:40:25;3.17;;;0.80;;
49514;SDS011;35415;47.870;16.058;2024-01-15T10:42:52;2.00;;;1.02;;
49514;SDS011;35415;47.870;16.058;2024-01-15T10:45:22;4.22;;;0.65;;
49514;SDS011;35415;47.870;16.058;2024-01-15T10:47:50;4.43;;;0.93;;
49514;SDS011;35415;47.870;16.058;2024-01-15T10:50:17;1.30;;;0.80;;
49514;SDS011;35415;47.870;16.058;2024-01-15T10:52:45;0.90;;;0.65;;
49514;SDS011;35415;47.870;16.058;2024-01-15T10:55:13;2.42;;;0.80;;
49514;SDS011;35415;47.870;16.058;2024-01-15T10:57:40;2.08;;;0.50;;
49514;SDS011;35415;47.870;16.058;2024-01-15T11:00:09;0.85;;;0.70;;
49514;SDS011;35415;47.870;16.058;2024-01-15T11:02:41;2.13;;;0.63;;
49514;SDS011;35415;47.870;16.058;2024-01-15T11:05:10;5.25;;;1.00;;
49514;SDS011;35415;47.870;16.058;2024-01-15T11:07:38;2.20;;;0.75;;
49514;SDS011;35415;47.870;16.058;2024-01-15T11:10:07;0.90;;;0.70;;
49514;SDS011;35415;47.870;16.058;2024-01-15T11:15:58;1.38;;;0.77;;
49514;SDS011;35415;47.870;16.058;2024-01-15T11:18:29;1.08;;;0.77;;
49514;SDS011;35415;47.870;16.058;2024-01-15T11:23:53;1.08;;;0.50;;
49514;SDS011;35415;47.870;16.058;2024-01-15T11:26:27;1.25;;;0.65;;
49514;SDS011;35415;47.870;16.058;2024-01-15T11:29:03;1.00;;;0.55;;
49514;SDS011;35415;47.870;16.058;2024-01-15T11:40:37;5.00;;;0.95;;
49514;SDS011;35415;47.870;16.058;2024-01-15T11:43:07;1.42;;;0.75;;
49514;SDS011;35415;47.870;16.058;2024-01-15T11:45:36;5.50;;;0.82;;
49514;SDS011;35415;47.870;16.058;2024-01-15T11:48:11;1.60;;;0.63;;
49514;SDS011;35415;47.870;16.058;2024-01-15T11:50:41;2.28;;;0.60;;
49514;SDS011;35415;47.870;16.058;2024-01-15T11:53:13;1.42;;;0.68;;
49514;SDS011;35415;47.870;16.058;2024-01-15T11:55:44;0.98;;;0.55;;
49514;SDS011;35415;47.870;16.058;2024-01-15T11:58:14;0.70;;;0.40;;
49514;SDS011;35415;47.870;16.058;2024-01-15T12:00:43;0.93;;;0.50;;
49514;SDS011;35415;47.870;16.058;2024-01-15T12:03:11;0.65;;;0.57;;
49514;SDS011;35415;47.870;16.058;2024-01-15T12:05:38;0.30;;;0.30;;
49514;SDS011;35415;47.870;16.058;2024-01-15T12:08:08;1.35;;;0.50;;
49514;SDS011;35415;47.870;16.058;2024-01-15T12:10:37;1.00;;;0.57;;
49514;SDS011;35415;47.870;16.058;2024-01-15T12:13:08;1.30;;;0.40;;
49514;SDS011;35415;47.870;16.058;2024-01-15T12:15:37;0.47;;;0.47;;
49514;SDS011;35415;47.870;16.058;2024-01-15T12:18:07;2.00;;;0.50;;
49514;SDS011;35415;47.870;16.058;2024-01-15T12:20:35;0.73;;;0.40;;
49514;SDS011;35415;47.870;16.058;2024-01-15T12:23:04;0.70;;;0.40;;
49514;SDS011;35415;47.870;16.058;2024-01-15T12:25:32;0.63;;;0.50;;
49514;SDS011;35415;47.870;16.058;2024-01-15T12:28:00;1.40;;;0.60;;
49514;SDS011;35415;47.870;16.058;2024-01-15T12:30:29;0.90;;;0.40;;
49514;SDS011;35415;47.870;16.058;2024-01-15T12:32:58;0.65;;;0.47;;
49514;SDS011;35415;47.870;16.058;2024-01-15T12:35:28;0.77;;;0.65;;
49514;SDS011;35415;47.870;16.058;2024-01-15T12:37:55;0.60;;;0.50;;
49514;SDS011;35415;47.870;16.058;2024-01-15T12:40:24;9.77;;;1.70;;
49514;SDS011;35415;47.870;16.058;2024-01-15T12:42:51;1.77;;;0.60;;
49514;SDS011;35415;47.870;16.058;2024-01-15T12:45:19;2.47;;;0.75;;
49514;SDS011;35415;47.870;16.058;2024-01-15T12:47:45;2.70;;;0.68;;
49514;SDS011;35415;47.870;16.058;2024-01-15T12:50:13;1.77;;;1.27;;
49514;SDS011;35415;47.870;16.058;2024-01-15T12:52:41;1.10;;;0.80;;
49514;SDS011;35415;47.870;16.058;2024-01-15T12:55:09;1.23;;;0.70;;
49514;SDS011;35415;47.870;16.058;2024-01-15T12:57:38;2.70;;;0.60;;
49514;SDS011;35415;47.870;16.058;2024-01-15T13:00:06;0.90;;;0.70;;
49514;SDS011;35415;47.870;16.058;2024-01-15T13:02:37;0.68;;;0.50;;
49514;SDS011;35415;47.870;16.058;2024-01-15T13:05:07;6.00;;;1.50;;
49514;SDS011;35415;47.870;16.058;2024-01-15T13:07:36;4.25;;;1.00;;
49514;SDS011;35415;47.870;16.058;2024-01-15T13:10:04;0.40;;;0.40;;
49514;SDS011;35415;47.870;16.058;2024-01-15T13:12:33;0.63;;;0.40;;
49514;SDS011;35415;47.870;16.058;2024-01-15T13:15:02;1.35;;;0.77;;
49514;SDS011;35415;47.870;16.058;2024-01-15T13:17:30;0.55;;;0.50;;
49514;SDS011;35415;47.870;16.058;2024-01-15T13:19:57;1.58;;;0.80;;
49514;SDS011;35415;47.870;16.058;2024-01-15T13:22:25;3.97;;;0.32;;
49514;SDS011;35415;47.870;16.058;2024-01-15T13:24:57;0.45;;;0.45;;
49514;SDS011;35415;47.870;16.058;2024-01-15T13:27:24;0.40;;;0.40;;
49514;SDS011;35415;47.870;16.058;2024-01-15T13:29:52;0.98;;;0.45;;
49514;SDS011;35415;47.870;16.058;2024-01-15T13:32:22;0.60;;;0.30;;
49514;SDS011;35415;47.870;16.058;2024-01-15T13:37:19;1.10;;;0.50;;
49514;SDS011;35415;47.870;16.058;2024-01-15T13:39:47;0.55;;;0.50;;
49514;SDS011;35415;47.870;16.058;2024-01-15T13:42:14;0.63;;;0.40;;
49514;SDS011;35415;47.870;16.058;2024-01-15T13:44:42;0.30;;;0.30;;
49514;SDS011;35415;47.870;16.058;2024-01-15T13:47:09;0.50;;;0.50;;
49514;SDS011;35415;47.870;16.058;2024-01-15T13:49:38;0.32;;;0.32;;
49514;SDS011;35415;47.870;16.058;2024-01-15T13:52:06;0.52;;;0.52;;
49514;SDS011;35415;47.870;16.058;2024-01-15T13:54:33;0.93;;;0.57;;
49514;SDS011;35415;47.870;16.058;2024-01-15T13:57:00;0.77;;;0.60;;
49514;SDS011;35415;47.870;16.058;2024-01-15T13:59:28;0.30;;;0.30;;
49514;SDS011;35415;47.870;16.058;2024-01-15T14:01:58;0.88;;;0.40;;
49514;SDS011;35415;47.870;16.058;2024-01-15T14:04:25;0.30;;;0.20;;
49514;SDS011;35415;47.870;16.058;2024-01-15T14:06:54;0.40;;;0.40;;
49514;SDS011;35415;47.870;16.058;2024-01-15T14:09:22;3.10;;;0.57;;
49514;SDS011;35415;47.870;16.058;2024-01-15T14:11:50;0.20;;;0.20;;
49514;SDS011;35415;47.870;16.058;2024-01-15T14:14:18;0.45;;;0.45;;
49514;SDS011;35415;47.870;16.058;2024-01-15T14:16:46;0.57;;;0.57;;
49514;SDS011;35415;47.870;16.058;2024-01-15T14:19:13;0.77;;;0.50;;
49514;SDS011;35415;47.870;16.058;2024-01-15T14:21:41;1.13;;;0.60;;
49514;SDS011;35415;47.870;16.058;2024-01-15T14:24:10;1.95;;;0.45;;
49514;SDS011;35415;47.870;16.058;2024-01-15T14:26:37;0.73;;;0.52;;
49514;SDS011;35415;47.870;16.058;2024-01-15T14:29:05;0.40;;;0.40;;
49514;SDS011;35415;47.870;16.058;2024-01-15T14:31:32;2.40;;;0.75;;
49514;SDS011;35415;47.870;16.058;2024-01-15T14:33:59;1.73;;;0.82;;
49514;SDS011;35415;47.870;16.058;2024-01-15T14:36:28;1.30;;;0.60;;
49514;SDS011;35415;47.870;16.058;2024-01-15T14:38:56;1.42;;;0.57;;
49514;SDS011;35415;47.870;16.058;2024-01-15T14:41:25;0.65;;;0.47;;
49514;SDS011;35415;47.870;16.058;2024-01-15T14:43:52;0.50;;;0.40;;
49514;SDS011;35415;47.870;16.058;2024-01-15T14:46:20;0.85;;;0.57;;
49514;SDS011;35415;47.870;16.058;2024-01-15T14:48:47;0.60;;;0.40;;
49514;SDS011;35415;47.870;16.058;2024-01-15T14:51:15;1.90;;;0.57;;
49514;SDS011;35415;47.870;16.058;2024-01-15T14:53:42;1.20;;;0.65;;
49514;SDS011;35415;47.870;16.058;2024-01-15T14:56:10;0.30;;;0.30;;